Terminal Aerodrome Forecast
Issued by NWS Portland, OR

Home | Current Version | Previous Version | Text Only | Print | Product List | Glossary On
Versions: 1 2 3 4 5 6 7 8 9 10 11 12 13 14 15 16 17 18 19 20 21 22 23 24 25 26 27 28
000
FTUS46 KPQR 022343
TAFTTD
TAF
KTTD 022343Z 0300/0324 32009KT P6SM BKN035 OVC050
     FM030400 26007KT P6SM BKN030
     FM031000 32005KT P6SM SCT015 OVC025
     FM031900 VRB03KT P6SM BKN040
     FM032100 34005KT P6SM SKC=

USA.gov is the U.S. government's official web portal to all federal, state and local government web resources and services.